createdAt,value
2018-12-27T00:00:05.863Z,84.06
2018-12-27T00:02:34.449Z,83.93
2018-12-27T00:05:03.091Z,83.93
2018-12-27T00:07:31.708Z,84.12
2018-12-27T00:10:00.412Z,84.03
2018-12-27T00:12:29.240Z,83.64
2018-12-27T00:14:58.331Z,84.76
2018-12-27T00:17:26.918Z,84.76
2018-12-27T00:19:55.598Z,84.47
2018-12-27T00:22:24.165Z,84.51
2018-12-27T00:24:52.653Z,84.62
2018-12-27T00:27:21.343Z,84.67
2018-12-27T00:29:50.085Z,84.54
2018-12-27T00:32:18.629Z,84.44
2018-12-27T00:34:47.313Z,84.36
2018-12-27T00:37:16.050Z,84.16
2018-12-27T00:39:44.813Z,84.20
2018-12-27T00:42:13.422Z,83.83
2018-12-27T00:44:42.046Z,83.84
2018-12-27T00:47:10.779Z,83.94
2018-12-27T00:49:39.456Z,84.15
2018-12-27T00:52:10.446Z,84.14
2018-12-27T00:54:39.157Z,84.21
2018-12-27T00:57:08.296Z,84.12
2018-12-27T00:59:36.956Z,82.85
2018-12-27T01:02:07.387Z,82.85
2018-12-27T01:04:36.025Z,83.16
2018-12-27T01:07:06.345Z,81.67
2018-12-27T01:09:39.319Z,81.09
2018-12-27T01:12:08.401Z,80.19
2018-12-27T01:14:37.279Z,79.83
2018-12-27T01:17:05.908Z,78.81
2018-12-27T01:19:35.933Z,77.83
2018-12-27T01:22:04.677Z,77.10
2018-12-27T01:24:33.244Z,76.20
2018-12-27T01:27:03.012Z,75.56
2018-12-27T01:29:33.720Z,74.88
2018-12-27T01:32:05.795Z,73.85
2018-12-27T01:34:50.008Z,73.12
2018-12-27T01:37:29.499Z,72.88
2018-12-27T01:40:00.087Z,71.09
2018-12-27T01:42:29.414Z,71.76
2018-12-27T01:45:01.720Z,70.98
2018-12-27T01:47:54.616Z,70.66
2018-12-27T01:50:23.590Z,69.41
2018-12-27T01:52:52.301Z,69.06
2018-12-27T01:55:21.067Z,68.87
2018-12-27T01:57:51.565Z,69.01
2018-12-27T02:00:20.259Z,68.76
2018-12-27T02:02:49.146Z,67.59
2018-12-27T02:05:18.018Z,67.13
2018-12-27T02:07:46.931Z,66.70
2018-12-27T02:10:16.700Z,67.00
2018-12-27T02:12:45.840Z,66.80
2018-12-27T02:15:14.591Z,66.63
2018-12-27T02:17:43.328Z,65.86
2018-12-27T02:20:11.922Z,66.53
2018-12-27T02:22:40.568Z,67.78
2018-12-27T02:25:09.193Z,67.43
2018-12-27T02:27:40.569Z,67.02
2018-12-27T02:30:09.219Z,66.93
2018-12-27T02:32:37.866Z,66.43
2018-12-27T02:35:06.463Z,66.67
2018-12-27T02:37:35.185Z,67.01
2018-12-27T02:40:03.892Z,66.81
2018-12-27T02:42:32.843Z,66.98
2018-12-27T02:45:01.654Z,67.35
2018-12-27T02:47:30.376Z,66.94
2018-12-27T02:49:59.067Z,66.91
2018-12-27T02:52:27.731Z,67.37
2018-12-27T02:54:56.702Z,66.79
2018-12-27T02:57:27.036Z,67.21
2018-12-27T02:59:58.781Z,66.84
2018-12-27T03:02:30.246Z,67.66
2018-12-27T03:04:59.560Z,67.11
2018-12-27T03:07:28.163Z,67.35
2018-12-27T03:09:57.004Z,67.30
2018-12-27T03:12:25.788Z,68.14
2018-12-27T03:14:54.374Z,67.26
2018-12-27T03:17:23.234Z,66.92
2018-12-27T03:19:54.861Z,66.74
2018-12-27T03:22:23.477Z,66.54
2018-12-27T03:24:52.049Z,66.62
2018-12-27T03:27:20.685Z,65.98
2018-12-27T03:29:49.295Z,65.63
2018-12-27T03:32:17.896Z,65.72
2018-12-27T03:34:46.478Z,64.66
2018-12-27T03:37:15.077Z,65.04
2018-12-27T03:39:43.830Z,64.77
2018-12-27T03:42:12.430Z,64.21
2018-12-27T03:44:41.069Z,64.02
2018-12-27T03:47:09.874Z,64.24
2018-12-27T03:49:38.507Z,63.93
2018-12-27T03:52:07.251Z,64.01
2018-12-27T03:54:36.011Z,64.11
2018-12-27T03:57:04.674Z,64.08
2018-12-27T03:59:33.475Z,63.98
2018-12-27T04:02:02.162Z,63.79
2018-12-27T04:04:31.337Z,64.05
2018-12-27T04:06:59.842Z,64.08
2018-12-27T04:09:28.459Z,64.68
2018-12-27T04:11:57.041Z,64.29
2018-12-27T04:14:27.440Z,64.76
2018-12-27T04:16:56.071Z,64.50
2018-12-27T04:19:24.563Z,64.46
2018-12-27T04:21:53.178Z,64.50
2018-12-27T04:24:22.512Z,63.71
2018-12-27T04:26:51.065Z,64.37
2018-12-27T04:29:19.538Z,63.84
2018-12-27T04:31:49.695Z,63.80
2018-12-27T04:34:24.397Z,63.99
2018-12-27T04:36:53.760Z,63.16
2018-12-27T04:39:22.333Z,63.22
2018-12-27T04:42:08.727Z,62.71
2018-12-27T04:44:37.541Z,62.85
2018-12-27T04:47:06.126Z,62.89
2018-12-27T04:49:34.640Z,62.67
2018-12-27T04:52:03.088Z,62.62
2018-12-27T04:54:31.747Z,62.71
2018-12-27T04:57:00.229Z,62.13
2018-12-27T04:59:28.734Z,61.69
2018-12-27T05:01:57.210Z,62.17
2018-12-27T05:04:25.798Z,62.24
2018-12-27T05:06:54.443Z,62.30
2018-12-27T05:09:23.183Z,62.13
2018-12-27T05:11:51.683Z,61.93
2018-12-27T05:14:20.372Z,61.33
2018-12-27T05:16:48.954Z,61.60
2018-12-27T05:19:17.507Z,61.16
2018-12-27T05:21:45.970Z,61.31
2018-12-27T05:24:14.465Z,61.38
2018-12-27T05:26:42.928Z,61.90
2018-12-27T05:29:11.403Z,61.85
2018-12-27T05:31:39.973Z,62.05
2018-12-27T05:34:08.471Z,62.11
2018-12-27T05:36:36.955Z,62.13
2018-12-27T05:39:06.640Z,61.79
2018-12-27T05:41:35.299Z,62.09
2018-12-27T05:44:03.853Z,62.23
2018-12-27T05:46:32.314Z,62.30
2018-12-27T05:49:00.897Z,61.92
2018-12-27T05:51:29.396Z,62.34
2018-12-27T05:53:58.035Z,62.97
2018-12-27T05:56:26.664Z,63.19
2018-12-27T05:58:55.410Z,63.24
2018-12-27T06:01:24.034Z,63.65
2018-12-27T06:03:55.342Z,63.48
2018-12-27T06:06:23.900Z,63.59
2018-12-27T06:08:52.413Z,63.58
2018-12-27T06:11:21.093Z,63.98
2018-12-27T06:13:49.700Z,63.98
2018-12-27T06:16:18.285Z,64.35
2018-12-27T06:18:46.825Z,64.66
2018-12-27T06:21:15.349Z,64.52
2018-12-27T06:23:43.908Z,64.43
2018-12-27T06:26:12.390Z,64.52
2018-12-27T06:28:40.974Z,64.52
2018-12-27T06:31:11.656Z,64.81
2018-12-27T06:33:40.237Z,65.32
2018-12-27T06:36:08.946Z,65.73
2018-12-27T06:38:37.609Z,65.38
2018-12-27T06:41:06.247Z,65.55
2018-12-27T06:43:34.797Z,65.77
2018-12-27T06:46:03.530Z,65.38
2018-12-27T06:48:32.251Z,65.47
2018-12-27T06:51:00.813Z,65.40
2018-12-27T06:53:29.339Z,64.86
2018-12-27T06:55:57.806Z,64.54
2018-12-27T06:58:26.350Z,65.18
2018-12-27T07:00:55.488Z,65.30
2018-12-27T07:03:24.031Z,65.01
2018-12-27T07:05:52.466Z,64.76
2018-12-27T07:08:21.034Z,64.61
2018-12-27T07:10:49.540Z,64.61
2018-12-27T07:13:17.994Z,64.03
2018-12-27T07:15:46.571Z,64.26
2018-12-27T07:18:15.056Z,63.99
2018-12-27T07:20:43.516Z,64.14
2018-12-27T07:23:12.037Z,63.97
2018-12-27T07:25:40.647Z,64.34
2018-12-27T07:28:09.132Z,64.73
2018-12-27T07:30:37.709Z,64.73
2018-12-27T07:33:06.293Z,65.00
2018-12-27T07:35:35.112Z,65.27
2018-12-27T07:38:03.785Z,65.37
2018-12-27T07:40:32.483Z,65.46
2018-12-27T07:43:19.031Z,65.52
2018-12-27T07:45:47.947Z,65.58
2018-12-27T07:48:16.402Z,65.78
2018-12-27T07:50:57.120Z,66.14
2018-12-27T07:53:25.602Z,66.20
2018-12-27T07:55:56.827Z,66.56
2018-12-27T07:58:28.442Z,66.34
2018-12-27T08:00:57.137Z,66.58
2018-12-27T08:03:25.663Z,66.49
2018-12-27T08:05:54.168Z,66.36
2018-12-27T08:08:22.964Z,66.32
2018-12-27T08:10:51.436Z,66.32
2018-12-27T08:13:19.978Z,66.37
2018-12-27T08:15:48.398Z,66.76
2018-12-27T08:18:16.985Z,66.87
2018-12-27T08:20:45.470Z,67.20
2018-12-27T08:23:13.973Z,67.31
2018-12-27T08:25:42.470Z,67.17
2018-12-27T08:28:10.915Z,68.23
2018-12-27T08:30:39.412Z,67.71
2018-12-27T08:33:07.997Z,68.61
2018-12-27T08:35:37.498Z,67.51
2018-12-27T08:38:05.978Z,67.43
2018-12-27T08:40:34.517Z,67.25
2018-12-27T08:43:04.555Z,67.61
2018-12-27T08:45:33.072Z,66.44
2018-12-27T08:48:01.773Z,66.84
2018-12-27T08:50:30.232Z,66.90
2018-12-27T08:52:58.718Z,66.85
2018-12-27T08:55:27.478Z,68.06
2018-12-27T08:57:56.016Z,67.69
2018-12-27T09:00:26.292Z,67.04
2018-12-27T09:02:54.896Z,66.62
2018-12-27T09:05:23.466Z,66.91
2018-12-27T09:07:52.109Z,66.75
2018-12-27T09:10:20.596Z,66.76
2018-12-27T09:12:49.057Z,66.96
2018-12-27T09:15:18.203Z,66.87
2018-12-27T09:17:46.988Z,66.50
2018-12-27T09:20:15.774Z,66.27
2018-12-27T09:22:44.301Z,65.88
2018-12-27T09:25:12.840Z,65.07
2018-12-27T09:27:41.324Z,65.24
2018-12-27T09:30:09.845Z,64.06
2018-12-27T09:32:38.323Z,63.00
2018-12-27T09:35:06.913Z,62.72
2018-12-27T09:37:36.501Z,62.15
2018-12-27T09:40:06.215Z,61.52
2018-12-27T09:42:38.352Z,60.19
2018-12-27T09:45:08.346Z,60.19
2018-12-27T09:47:36.762Z,59.50
2018-12-27T09:50:06.061Z,59.78
2018-12-27T09:52:34.539Z,59.69
2018-12-27T09:55:03.122Z,59.69
2018-12-27T09:57:31.571Z,58.84
2018-12-27T10:00:00.240Z,58.84
2018-12-27T10:02:28.970Z,59.56
2018-12-27T10:04:57.555Z,59.56
2018-12-27T10:07:26.339Z,58.66
2018-12-27T10:09:55.023Z,58.03
2018-12-27T10:12:23.864Z,57.69
2018-12-27T10:14:52.346Z,57.69
2018-12-27T10:17:22.386Z,58.73
2018-12-27T10:19:50.996Z,58.00
2018-12-27T10:22:19.669Z,56.84
2018-12-27T10:24:48.211Z,57.27
2018-12-27T10:27:16.897Z,56.99
2018-12-27T10:29:45.418Z,57.54
2018-12-27T10:32:13.847Z,57.18
2018-12-27T10:34:42.309Z,56.49
2018-12-27T10:37:10.785Z,55.46
2018-12-27T10:39:39.330Z,55.46
2018-12-27T10:42:08.154Z,55.37
2018-12-27T10:44:36.777Z,55.02
2018-12-27T10:47:05.546Z,54.96
2018-12-27T10:49:35.678Z,55.00
2018-12-27T10:52:04.189Z,55.06
2018-12-27T10:54:32.670Z,55.09
2018-12-27T10:57:01.646Z,55.13
2018-12-27T10:59:30.110Z,54.94
2018-12-27T11:02:06.070Z,54.57
2018-12-27T11:04:34.507Z,54.48
2018-12-27T11:07:05.764Z,54.83
2018-12-27T11:09:36.084Z,54.95
2018-12-27T11:12:04.545Z,55.54
2018-12-27T11:14:33.302Z,55.27
2018-12-27T11:17:02.198Z,55.14
2018-12-27T11:19:33.977Z,55.56
2018-12-27T11:22:02.555Z,55.56
2018-12-27T11:24:31.038Z,54.49
2018-12-27T11:26:59.763Z,54.84
2018-12-27T11:29:28.434Z,55.14
2018-12-27T11:31:56.925Z,55.90
2018-12-27T11:34:25.450Z,55.90
2018-12-27T11:36:53.995Z,55.70
2018-12-27T11:39:22.488Z,55.70
2018-12-27T11:41:51.079Z,56.40
2018-12-27T11:44:19.646Z,56.04
2018-12-27T11:46:48.748Z,55.82
2018-12-27T11:49:17.197Z,56.30
2018-12-27T11:51:45.640Z,56.26
2018-12-27T11:54:14.323Z,58.02
2018-12-27T11:56:42.942Z,58.89
2018-12-27T11:59:11.489Z,58.89
2018-12-27T12:01:40.580Z,58.46
2018-12-27T12:04:09.343Z,58.54
2018-12-27T12:06:37.820Z,58.40
2018-12-27T12:09:06.987Z,58.11
2018-12-27T12:11:35.473Z,58.18
2018-12-27T12:14:04.259Z,57.58
2018-12-27T12:16:32.796Z,57.91
2018-12-27T12:19:01.482Z,57.61
2018-12-27T12:21:30.065Z,57.61
2018-12-27T12:23:59.032Z,57.84
2018-12-27T12:26:27.672Z,57.84
2018-12-27T12:28:56.200Z,57.14
2018-12-27T12:31:24.683Z,56.96
2018-12-27T12:33:53.188Z,56.43
2018-12-27T12:36:21.670Z,55.53
2018-12-27T12:38:50.227Z,54.83
2018-12-27T12:41:18.758Z,53.98
2018-12-27T12:43:47.608Z,53.64
2018-12-27T12:46:16.056Z,54.12
2018-12-27T12:48:44.719Z,54.00
2018-12-27T12:51:13.240Z,54.06
2018-12-27T12:53:41.919Z,54.28
2018-12-27T12:56:10.539Z,53.34
2018-12-27T12:58:39.231Z,52.57
2018-12-27T13:01:09.151Z,51.93
2018-12-27T13:03:37.701Z,52.34
2018-12-27T13:06:07.236Z,52.94
2018-12-27T13:08:35.768Z,52.97
2018-12-27T13:11:04.405Z,53.39
2018-12-27T13:13:33.385Z,53.91
2018-12-27T13:16:02.291Z,53.91
2018-12-27T13:18:30.959Z,54.17
2018-12-27T13:20:59.788Z,54.40
2018-12-27T13:23:28.346Z,55.10
2018-12-27T13:25:56.806Z,57.19
2018-12-27T13:28:25.331Z,57.19
2018-12-27T13:30:53.783Z,57.79
2018-12-27T13:33:22.317Z,59.26
2018-12-27T13:35:50.844Z,60.50
2018-12-27T13:38:19.333Z,61.36
2018-12-27T13:40:47.923Z,61.60
2018-12-27T13:43:16.469Z,62.31
2018-12-27T13:45:44.952Z,62.21
2018-12-27T13:48:13.511Z,65.04
2018-12-27T13:50:42.418Z,65.04
2018-12-27T13:53:11.895Z,65.65
2018-12-27T13:55:40.577Z,65.53
2018-12-27T13:58:09.075Z,65.60
2018-12-27T14:00:37.624Z,65.87
2018-12-27T14:03:06.433Z,66.50
2018-12-27T14:05:35.911Z,66.50
2018-12-27T14:08:04.521Z,66.11
2018-12-27T14:10:32.958Z,66.26
2018-12-27T14:13:01.627Z,66.30
2018-12-27T14:15:30.248Z,66.65
2018-12-27T14:17:58.911Z,66.01
2018-12-27T14:20:27.590Z,65.54
2018-12-27T14:22:56.003Z,65.43
2018-12-27T14:25:24.420Z,64.53
2018-12-27T14:27:52.924Z,62.40
2018-12-27T14:30:21.408Z,58.04
2018-12-27T14:32:49.908Z,55.15
2018-12-27T14:35:18.332Z,51.60
2018-12-27T14:37:46.852Z,51.55
2018-12-27T14:40:15.432Z,51.88
2018-12-27T14:42:47.117Z,52.28
2018-12-27T14:45:15.778Z,53.55
2018-12-27T14:47:44.213Z,54.48
2018-12-27T14:50:12.664Z,54.96
2018-12-27T14:52:41.143Z,55.02
2018-12-27T14:55:09.727Z,55.34
2018-12-27T14:57:38.214Z,55.34
2018-12-27T15:00:09.920Z,54.73
2018-12-27T15:02:39.957Z,54.41
2018-12-27T15:05:08.461Z,54.13
2018-12-27T15:07:36.998Z,52.57
2018-12-27T15:10:07.679Z,52.31
2018-12-27T15:12:36.156Z,51.93
2018-12-27T15:15:05.621Z,51.37
2018-12-27T15:17:34.580Z,52.36
2018-12-27T15:20:03.444Z,52.36
2018-12-27T15:22:32.065Z,50.84
2018-12-27T15:25:00.646Z,50.95
2018-12-27T15:27:29.320Z,51.29
2018-12-27T15:29:57.885Z,51.09
2018-12-27T15:32:26.393Z,50.26
2018-12-27T15:34:54.848Z,50.89
2018-12-27T15:37:23.558Z,50.89
2018-12-27T15:39:52.179Z,50.91
2018-12-27T15:42:20.830Z,50.63
2018-12-27T15:44:49.605Z,49.85
2018-12-27T15:47:18.104Z,50.55
2018-12-27T15:49:46.553Z,50.24
2018-12-27T15:52:15.014Z,50.30
2018-12-27T15:54:43.706Z,50.23
2018-12-27T15:57:12.232Z,49.98
2018-12-27T15:59:40.793Z,49.58
2018-12-27T16:02:09.335Z,50.20
2018-12-27T16:04:38.434Z,49.55
2018-12-27T16:07:07.115Z,49.55
2018-12-27T16:09:35.750Z,50.53
2018-12-27T16:12:04.387Z,50.61
2018-12-27T16:14:33.342Z,50.02
2018-12-27T16:17:01.960Z,50.55
2018-12-27T16:19:30.697Z,51.11
2018-12-27T16:21:59.544Z,51.07
2018-12-27T16:24:28.207Z,51.43
2018-12-27T16:26:56.807Z,51.62
2018-12-27T16:29:25.285Z,51.79
2018-12-27T16:31:53.751Z,51.79
2018-12-27T16:34:22.508Z,52.02
2018-12-27T16:36:51.137Z,52.67
2018-12-27T16:39:19.678Z,52.85
2018-12-27T16:41:49.433Z,53.77
2018-12-27T16:44:17.996Z,53.73
2018-12-27T16:46:46.489Z,54.30
2018-12-27T16:49:14.934Z,54.55
2018-12-27T16:51:43.535Z,55.15
2018-12-27T16:54:12.249Z,55.32
2018-12-27T16:56:40.883Z,55.71
2018-12-27T16:59:09.547Z,56.41
2018-12-27T17:01:38.167Z,56.36
2018-12-27T17:04:07.005Z,57.23
2018-12-27T17:06:35.513Z,57.23
2018-12-27T17:09:05.255Z,57.04
2018-12-27T17:11:33.742Z,56.91
2018-12-27T17:14:02.463Z,57.34
2018-12-27T17:16:31.041Z,57.25
2018-12-27T17:18:59.668Z,57.35
2018-12-27T17:21:28.473Z,57.36
2018-12-27T17:23:58.411Z,56.94
2018-12-27T17:26:26.932Z,56.94
2018-12-27T17:28:55.461Z,56.77
2018-12-27T17:31:23.948Z,56.50
2018-12-27T17:33:52.453Z,56.35
2018-12-27T17:36:22.002Z,56.39
2018-12-27T17:38:50.471Z,56.20
2018-12-27T17:41:18.992Z,56.47
2018-12-27T17:43:47.593Z,56.38
2018-12-27T17:46:16.490Z,56.23
2018-12-27T17:48:45.095Z,56.30
2018-12-27T17:51:13.587Z,56.02
2018-12-27T17:53:42.116Z,56.39
2018-12-27T17:56:18.173Z,56.33
2018-12-27T17:58:43.810Z,56.19
2018-12-27T18:01:15.979Z,56.32
2018-12-27T18:03:44.631Z,55.97
2018-12-27T18:06:13.048Z,56.26
2018-12-27T18:08:41.556Z,56.50
2018-12-27T18:11:10.037Z,56.57
2018-12-27T18:13:38.509Z,57.21
2018-12-27T18:16:07.044Z,57.01
2018-12-27T18:18:35.578Z,57.33
2018-12-27T18:21:04.282Z,57.33
2018-12-27T18:23:33.057Z,57.66
2018-12-27T18:26:01.742Z,57.66
2018-12-27T18:28:30.300Z,58.29
2018-12-27T18:31:01.244Z,58.47
2018-12-27T18:33:29.770Z,58.81
2018-12-27T18:35:58.204Z,59.43
2018-12-27T18:38:26.754Z,59.43
2018-12-27T18:40:55.702Z,59.42
2018-12-27T18:43:24.330Z,59.28
2018-12-27T18:45:52.765Z,59.40
2018-12-27T18:48:21.543Z,59.82
2018-12-27T18:50:57.461Z,60.65
2018-12-27T18:53:25.938Z,60.85
2018-12-27T18:55:54.509Z,60.93
2018-12-27T18:58:23.216Z,61.21
2018-12-27T19:00:52.231Z,61.36
2018-12-27T19:03:21.859Z,62.64
2018-12-27T19:05:54.220Z,62.20
2018-12-27T19:08:22.659Z,62.55
2018-12-27T19:11:27.371Z,63.50
2018-12-27T19:13:55.836Z,64.54
2018-12-27T19:16:24.386Z,65.72
2018-12-27T19:18:52.970Z,65.72
2018-12-27T19:21:21.549Z,65.57
2018-12-27T19:23:51.693Z,66.54
2018-12-27T19:26:20.410Z,66.58
2018-12-27T19:28:49.038Z,67.09
2018-12-27T19:31:18.062Z,67.95
2018-12-27T19:33:48.291Z,67.82
2018-12-27T19:36:17.017Z,68.28
2018-12-27T19:38:45.715Z,68.61
2018-12-27T19:41:14.243Z,68.63
2018-12-27T19:43:42.923Z,68.54
2018-12-27T19:46:11.412Z,68.21
2018-12-27T19:48:41.439Z,68.47
2018-12-27T19:51:09.909Z,68.28
2018-12-27T19:53:38.515Z,68.34
2018-12-27T19:56:07.109Z,69.10
2018-12-27T19:58:35.914Z,69.10
2018-12-27T20:01:04.420Z,69.08
2018-12-27T20:03:32.952Z,68.96
2018-12-27T20:06:01.559Z,69.35
2018-12-27T20:08:30.154Z,69.09
2018-12-27T20:10:58.699Z,69.51
2018-12-27T20:13:27.219Z,69.01
2018-12-27T20:15:55.737Z,69.61
2018-12-27T20:18:24.222Z,68.97
2018-12-27T20:20:52.763Z,69.11
2018-12-27T20:23:21.287Z,69.11
2018-12-27T20:25:49.843Z,69.48
2018-12-27T20:28:18.431Z,69.43
2018-12-27T20:30:47.196Z,69.84
2018-12-27T20:33:15.928Z,69.55
2018-12-27T20:35:44.612Z,70.14
2018-12-27T20:38:13.610Z,70.28
2018-12-27T20:40:42.289Z,70.13
2018-12-27T20:43:10.896Z,69.95
2018-12-27T20:45:42.278Z,70.08
2018-12-27T20:48:10.757Z,69.86
2018-12-27T20:50:39.262Z,69.95
2018-12-27T20:53:07.763Z,69.60
2018-12-27T20:55:37.481Z,68.85
2018-12-27T20:58:09.118Z,68.85
2018-12-27T21:00:38.038Z,69.50
2018-12-27T21:03:06.766Z,69.20
2018-12-27T21:05:37.732Z,69.36
2018-12-27T21:08:14.062Z,69.66
2018-12-27T21:10:42.646Z,68.70
2018-12-27T21:13:11.228Z,68.70
2018-12-27T21:15:40.081Z,69.05
2018-12-27T21:18:08.576Z,69.46
2018-12-27T21:20:37.086Z,69.77
2018-12-27T21:23:05.746Z,69.51
2018-12-27T21:25:37.379Z,69.75
2018-12-27T21:28:05.881Z,69.95
2018-12-27T21:30:34.372Z,70.31
2018-12-27T21:33:02.880Z,70.36
2018-12-27T21:35:31.343Z,70.27
2018-12-27T21:37:59.865Z,70.68
2018-12-27T21:40:28.583Z,70.68
2018-12-27T21:42:57.327Z,70.68
2018-12-27T21:45:25.768Z,70.42
2018-12-27T21:47:54.224Z,70.25
2018-12-27T21:50:22.828Z,70.10
2018-12-27T21:52:51.495Z,69.82
2018-12-27T21:55:21.568Z,69.77
2018-12-27T21:57:50.604Z,69.82
2018-12-27T22:00:19.142Z,69.60
2018-12-27T22:02:48.323Z,69.60
2018-12-27T22:05:16.769Z,70.20
2018-12-27T22:07:45.305Z,70.20
2018-12-27T22:10:13.933Z,70.15
2018-12-27T22:12:42.570Z,70.08
2018-12-27T22:15:13.070Z,70.22
2018-12-27T22:17:41.753Z,70.06
2018-12-27T22:20:10.319Z,70.41
2018-12-27T22:22:39.105Z,70.94
2018-12-27T22:25:07.597Z,70.94
2018-12-27T22:27:41.470Z,71.15
2018-12-27T22:30:10.054Z,71.38
2018-12-27T22:32:38.557Z,71.38
2018-12-27T22:35:06.971Z,71.40
2018-12-27T22:37:35.420Z,71.68
2018-12-27T22:40:08.577Z,72.30
2018-12-27T22:42:37.272Z,72.30
2018-12-27T22:45:05.969Z,72.76
2018-12-27T22:47:34.421Z,73.62
2018-12-27T22:50:02.866Z,72.99
2018-12-27T22:52:34.549Z,73.25
2018-12-27T22:55:02.971Z,74.13
2018-12-27T22:57:31.537Z,73.70
2018-12-27T22:59:59.979Z,74.39
2018-12-27T23:02:28.465Z,73.97
2018-12-27T23:04:56.910Z,74.82
2018-12-27T23:07:25.476Z,74.82
2018-12-27T23:09:53.981Z,74.59
2018-12-27T23:12:22.438Z,75.45
2018-12-27T23:14:50.942Z,75.49
2018-12-27T23:17:19.429Z,75.57
2018-12-27T23:19:47.961Z,75.64
2018-12-27T23:22:18.661Z,76.06
2018-12-27T23:24:49.917Z,75.76
2018-12-27T23:27:21.196Z,75.56
2018-12-27T23:29:49.760Z,75.52
2018-12-27T23:32:18.616Z,76.37
2018-12-27T23:34:47.127Z,76.56
2018-12-27T23:37:17.317Z,75.72
2018-12-27T23:39:45.951Z,75.72
2018-12-27T23:42:14.735Z,76.83
2018-12-27T23:44:43.260Z,76.78
2018-12-27T23:47:11.771Z,77.32
2018-12-27T23:49:40.331Z,77.06
2018-12-27T23:52:26.203Z,76.75
2018-12-27T23:54:54.728Z,76.85
2018-12-27T23:57:23.173Z,76.33
2018-12-27T23:59:51.827Z,76.33
